ADDS METAR Data INFO
IDs: Format: Raw Decoded Include TAF

Data at: 1550 UTC 12 Dec 2017

KLEE 121453Z 21007KT 10SM BKN038 17/12 A3004 RMK AO2 SLP171 T01670122 58006
KLEE 121353Z 21008KT 10SM CLR 13/11 A3004 RMK AO2 SLP172 T01330111
KLEE 121253Z 21008KT 10SM CLR 11/09 A3005 RMK AO2 SLP177 T01110094
KLEE 121153Z 21008KT 10SM CLR 11/08 A3006 RMK AO2 SLP178 T01060083 10106 20089 56005
KLEE 121053Z AUTO 22006KT 10SM CLR 11/08 A3006 RMK AO2 SLP178 T01060083
KLEE 120953Z AUTO 22006KT 10SM CLR 11/08 A3006 RMK AO2 SLP179 T01060083
KLEE 120853Z AUTO 21004KT 10SM CLR 10/08 A3007 RMK AO2 SLP182 T01000083 56017
KLEE 120753Z AUTO 19003KT 10SM CLR 09/07 A3008 RMK AO2 SLP185 T00940072
KLEE 120653Z AUTO 21003KT 10SM CLR 10/07 A3010 RMK AO2 SLP192 T01000072
KLEE 120553Z AUTO 22004KT 10SM CLR 09/07 A3012 RMK AO2 SLP199 T00940067 10122 20078 58019
KLEE 120453Z AUTO 00000KT 10SM CLR 09/06 A3014 RMK AO2 SLP206 T00940061 401720044
KLEE 120353Z AUTO 22005KT 10SM CLR 10/06 A3017 RMK AO2 SLP215 T01000056
KLEE 120253Z AUTO 24003KT 10SM CLR 09/04 A3018 RMK AO2 SLP219 T00940039 58003
KLEE 120153Z AUTO 00000KT 10SM CLR 10/02 A3018 RMK AO2 SLP221 T01000022
KLEE 120053Z AUTO 27005KT 10SM CLR 11/02 A3019 RMK AO2 SLP223 T01110017
KLEE 112353Z 28005KT 10SM CLR 12/01 A3019 RMK AO2 SLP222 T01170006 10172 20117 53005
KLEE 112253Z 00000KT 10SM CLR 13/02 A3017 RMK AO2 SLP218 T01330017
KLEE 112153Z 25006KT 10SM CLR 16/01 A3017 RMK AO2 SLP217 T01610006
KLEE 112053Z 30006KT 10SM CLR 17/M02 A3017 RMK AO2 SLP216 T01721022 56018
KLEE 111953Z 26003KT 10SM CLR 17/M01 A3018 RMK AO2 SLP219 T01671011
KLEE 111853Z VRB03KT 10SM CLR 16/00 A3020 RMK AO2 SLP226 T01610000
KLEE 111753Z VRB05KT 10SM CLR 15/M02 A3023 RMK AO2 SLP235 T01501017 10150 20044 58032
KLEE 111653Z 34007KT 10SM CLR 14/M01 A3026 RMK AO2 SLP248 T01391006
KLEE 111553Z 01005KT 10SM CLR 13/M01 A3030 RMK AO2 SLP260 T01331006
KLEE 111453Z 35007KT 10SM CLR 11/01 A3032 RMK AO2 SLP267 T01110006 50004
KLEE 111353Z 35008KT 10SM CLR 09/02 A3032 RMK AO2 SLP267 T00940022
KLEE 111253Z 36003KT 10SM CLR 07/03 A3032 RMK AO2 SLP266 T00670033
KLEE 111153Z 00000KT 10SM CLR 06/03 A3031 RMK AO2 SLP263 T00560033 10072 20050 53003
KLEE 111053Z AUTO 00000KT 10SM CLR 06/03 A3030 RMK AO2 SLP260 T00560033
KLEE 110953Z AUTO 01003KT 10SM CLR 06/03 A3030 RMK AO2 SLP261 T00560033
KLEE 110853Z AUTO 36003KT 10SM CLR 06/03 A3030 RMK AO2 SLP260 T00560028 58002
KLEE 110753Z AUTO 34004KT 10SM CLR 06/04 A3031 RMK AO2 SLP262 T00560039
KLEE 110653Z AUTO 32003KT 10SM CLR 06/03 A3031 RMK AO2 SLP262 T00610033
KLEE 110553Z AUTO 31003KT 10SM CLR 07/03 A3031 RMK AO2 SLP262 T00720033 10106 20072 58007
KLEE 110453Z AUTO 31006KT 10SM CLR 08/03 A3032 RMK AO2 SLP268 T00780033 401390050
KLEE 110353Z AUTO 31005KT 10SM CLR 08/03 A3033 RMK AO2 SLP272 T00830033